sensor_id;sensor_type;location;lat;lon;timestamp;P1;durP1;ratioP1;P2;durP2;ratioP2
12429;SDS011;6279;42.192;24.326;2023-03-01T00:00:14;5.00;;;4.47;;
12429;SDS011;6279;42.192;24.326;2023-03-01T00:02:40;4.47;;;4.03;;
12429;SDS011;6279;42.192;24.326;2023-03-01T00:05:05;5.13;;;4.47;;
12429;SDS011;6279;42.192;24.326;2023-03-01T00:07:32;3.90;;;3.50;;
12429;SDS011;6279;42.192;24.326;2023-03-01T00:09:58;4.73;;;3.60;;
12429;SDS011;6279;42.192;24.326;2023-03-01T00:12:23;3.80;;;3.50;;
12429;SDS011;6279;42.192;24.326;2023-03-01T00:14:49;3.80;;;3.40;;
12429;SDS011;6279;42.192;24.326;2023-03-01T00:17:14;4.23;;;3.60;;
12429;SDS011;6279;42.192;24.326;2023-03-01T00:19:39;3.10;;;2.80;;
12429;SDS011;6279;42.192;24.326;2023-03-01T00:22:05;3.53;;;3.10;;
12429;SDS011;6279;42.192;24.326;2023-03-01T00:24:30;3.23;;;2.83;;
12429;SDS011;6279;42.192;24.326;2023-03-01T00:26:55;3.33;;;3.03;;
12429;SDS011;6279;42.192;24.326;2023-03-01T00:29:22;2.30;;;2.10;;
12429;SDS011;6279;42.192;24.326;2023-03-01T00:31:48;2.53;;;2.13;;
12429;SDS011;6279;42.192;24.326;2023-03-01T00:34:14;3.13;;;2.83;;
12429;SDS011;6279;42.192;24.326;2023-03-01T00:36:39;3.57;;;2.93;;
12429;SDS011;6279;42.192;24.326;2023-03-01T00:39:05;2.43;;;2.23;;
12429;SDS011;6279;42.192;24.326;2023-03-01T00:41:33;2.90;;;2.47;;
12429;SDS011;6279;42.192;24.326;2023-03-01T00:43:59;2.90;;;2.57;;
12429;SDS011;6279;42.192;24.326;2023-03-01T00:46:25;3.47;;;3.17;;
12429;SDS011;6279;42.192;24.326;2023-03-01T00:48:51;3.43;;;3.10;;
12429;SDS011;6279;42.192;24.326;2023-03-01T00:51:18;3.50;;;3.20;;
12429;SDS011;6279;42.192;24.326;2023-03-01T00:53:56;3.80;;;3.40;;
12429;SDS011;6279;42.192;24.326;2023-03-01T00:56:23;3.60;;;3.30;;
12429;SDS011;6279;42.192;24.326;2023-03-01T00:58:49;3.80;;;3.40;;
12429;SDS011;6279;42.192;24.326;2023-03-01T01:01:16;3.80;;;3.50;;
12429;SDS011;6279;42.192;24.326;2023-03-01T01:04:03;4.50;;;4.00;;
12429;SDS011;6279;42.192;24.326;2023-03-01T01:06:35;4.10;;;3.70;;
12429;SDS011;6279;42.192;24.326;2023-03-01T01:09:04;4.63;;;4.20;;
12429;SDS011;6279;42.192;24.326;2023-03-01T01:11:32;7.87;;;6.23;;
12429;SDS011;6279;42.192;24.326;2023-03-01T01:13:58;5.33;;;4.70;;
12429;SDS011;6279;42.192;24.326;2023-03-01T01:16:25;7.10;;;5.93;;
12429;SDS011;6279;42.192;24.326;2023-03-01T01:18:51;5.73;;;5.00;;
12429;SDS011;6279;42.192;24.326;2023-03-01T01:21:18;5.37;;;4.40;;
12429;SDS011;6279;42.192;24.326;2023-03-01T01:23:45;4.50;;;4.10;;
12429;SDS011;6279;42.192;24.326;2023-03-01T01:26:24;4.83;;;4.30;;
12429;SDS011;6279;42.192;24.326;2023-03-01T01:28:52;4.60;;;4.20;;
12429;SDS011;6279;42.192;24.326;2023-03-01T01:31:19;5.27;;;4.77;;
12429;SDS011;6279;42.192;24.326;2023-03-01T01:33:45;4.30;;;3.90;;
12429;SDS011;6279;42.192;24.326;2023-03-01T01:36:11;5.10;;;4.60;;
12429;SDS011;6279;42.192;24.326;2023-03-01T01:38:37;5.27;;;4.77;;
12429;SDS011;6279;42.192;24.326;2023-03-01T01:41:03;5.27;;;4.60;;
12429;SDS011;6279;42.192;24.326;2023-03-01T01:43:33;5.90;;;5.30;;
12429;SDS011;6279;42.192;24.326;2023-03-01T01:46:05;4.70;;;4.20;;
12429;SDS011;6279;42.192;24.326;2023-03-01T01:49:04;5.33;;;4.83;;
12429;SDS011;6279;42.192;24.326;2023-03-01T01:51:35;3.93;;;3.57;;
12429;SDS011;6279;42.192;24.326;2023-03-01T01:54:06;4.70;;;4.23;;
12429;SDS011;6279;42.192;24.326;2023-03-01T01:56:35;5.23;;;4.37;;
12429;SDS011;6279;42.192;24.326;2023-03-01T01:59:02;4.67;;;3.93;;
12429;SDS011;6279;42.192;24.326;2023-03-01T02:01:27;4.83;;;4.33;;
12429;SDS011;6279;42.192;24.326;2023-03-01T02:03:53;5.37;;;4.87;;
12429;SDS011;6279;42.192;24.326;2023-03-01T02:08:57;4.90;;;4.23;;
12429;SDS011;6279;42.192;24.326;2023-03-01T02:11:27;6.70;;;5.87;;
12429;SDS011;6279;42.192;24.326;2023-03-01T02:13:56;7.03;;;5.07;;
12429;SDS011;6279;42.192;24.326;2023-03-01T02:16:21;8.33;;;5.80;;
12429;SDS011;6279;42.192;24.326;2023-03-01T02:18:47;6.43;;;5.83;;
12429;SDS011;6279;42.192;24.326;2023-03-01T02:24:49;5.97;;;5.20;;
12429;SDS011;6279;42.192;24.326;2023-03-01T02:27:03;6.57;;;5.50;;
12429;SDS011;6279;42.192;24.326;2023-03-01T02:29:28;7.73;;;5.50;;
12429;SDS011;6279;42.192;24.326;2023-03-01T02:31:54;5.80;;;5.17;;
12429;SDS011;6279;42.192;24.326;2023-03-01T02:34:22;6.60;;;5.90;;
12429;SDS011;6279;42.192;24.326;2023-03-01T02:37:10;8.63;;;6.33;;
12429;SDS011;6279;42.192;24.326;2023-03-01T02:39:40;9.93;;;6.53;;
12429;SDS011;6279;42.192;24.326;2023-03-01T02:42:10;6.97;;;6.27;;
12429;SDS011;6279;42.192;24.326;2023-03-01T02:44:37;6.43;;;5.57;;
12429;SDS011;6279;42.192;24.326;2023-03-01T02:47:03;5.90;;;4.90;;
12429;SDS011;6279;42.192;24.326;2023-03-01T02:49:33;6.30;;;5.70;;
12429;SDS011;6279;42.192;24.326;2023-03-01T02:52:10;6.43;;;5.57;;
12429;SDS011;6279;42.192;24.326;2023-03-01T02:57:20;5.27;;;4.30;;
12429;SDS011;6279;42.192;24.326;2023-03-01T02:59:48;6.23;;;4.53;;
12429;SDS011;6279;42.192;24.326;2023-03-01T03:05:00;5.03;;;4.23;;
12429;SDS011;6279;42.192;24.326;2023-03-01T03:07:43;4.47;;;4.07;;
12429;SDS011;6279;42.192;24.326;2023-03-01T03:10:20;4.07;;;3.67;;
12429;SDS011;6279;42.192;24.326;2023-03-01T03:12:51;4.20;;;3.80;;
12429;SDS011;6279;42.192;24.326;2023-03-01T03:15:18;3.67;;;3.30;;
12429;SDS011;6279;42.192;24.326;2023-03-01T03:17:45;4.60;;;4.13;;
12429;SDS011;6279;42.192;24.326;2023-03-01T03:20:12;4.87;;;4.10;;
12429;SDS011;6279;42.192;24.326;2023-03-01T03:22:43;6.00;;;5.40;;
12429;SDS011;6279;42.192;24.326;2023-03-01T03:25:13;5.87;;;5.27;;
12429;SDS011;6279;42.192;24.326;2023-03-01T03:27:39;6.97;;;5.67;;
12429;SDS011;6279;42.192;24.326;2023-03-01T03:30:08;7.00;;;6.30;;
12429;SDS011;6279;42.192;24.326;2023-03-01T03:32:37;6.37;;;5.50;;
12429;SDS011;6279;42.192;24.326;2023-03-01T03:35:04;7.50;;;6.10;;
12429;SDS011;6279;42.192;24.326;2023-03-01T03:37:37;5.93;;;4.80;;
12429;SDS011;6279;42.192;24.326;2023-03-01T03:40:24;5.83;;;5.07;;
12429;SDS011;6279;42.192;24.326;2023-03-01T03:42:50;5.77;;;5.17;;
12429;SDS011;6279;42.192;24.326;2023-03-01T03:45:16;4.77;;;3.93;;
12429;SDS011;6279;42.192;24.326;2023-03-01T03:47:42;5.60;;;5.07;;
12429;SDS011;6279;42.192;24.326;2023-03-01T03:50:09;5.30;;;4.80;;
12429;SDS011;6279;42.192;24.326;2023-03-01T03:52:36;5.97;;;5.23;;
12429;SDS011;6279;42.192;24.326;2023-03-01T03:55:01;4.80;;;3.97;;
12429;SDS011;6279;42.192;24.326;2023-03-01T03:57:27;5.30;;;4.53;;
12429;SDS011;6279;42.192;24.326;2023-03-01T03:59:52;10.40;;;5.57;;
12429;SDS011;6279;42.192;24.326;2023-03-01T04:02:17;6.37;;;5.70;;
12429;SDS011;6279;42.192;24.326;2023-03-01T04:04:47;6.80;;;6.10;;
12429;SDS011;6279;42.192;24.326;2023-03-01T04:07:15;6.80;;;6.10;;
12429;SDS011;6279;42.192;24.326;2023-03-01T04:09:41;6.20;;;5.60;;
12429;SDS011;6279;42.192;24.326;2023-03-01T04:12:07;6.37;;;5.77;;
12429;SDS011;6279;42.192;24.326;2023-03-01T04:14:33;6.77;;;6.07;;
12429;SDS011;6279;42.192;24.326;2023-03-01T04:16:59;8.43;;;6.40;;
12429;SDS011;6279;42.192;24.326;2023-03-01T04:19:24;6.83;;;5.90;;
12429;SDS011;6279;42.192;24.326;2023-03-01T04:21:52;7.37;;;6.57;;
12429;SDS011;6279;42.192;24.326;2023-03-01T04:24:18;8.33;;;6.50;;
12429;SDS011;6279;42.192;24.326;2023-03-01T04:26:44;8.10;;;6.87;;
12429;SDS011;6279;42.192;24.326;2023-03-01T04:29:09;8.93;;;7.10;;
12429;SDS011;6279;42.192;24.326;2023-03-01T04:31:35;7.80;;;6.93;;
12429;SDS011;6279;42.192;24.326;2023-03-01T04:34:00;8.50;;;7.70;;
12429;SDS011;6279;42.192;24.326;2023-03-01T04:36:27;9.40;;;7.20;;
12429;SDS011;6279;42.192;24.326;2023-03-01T04:38:54;8.67;;;7.77;;
12429;SDS011;6279;42.192;24.326;2023-03-01T04:41:21;8.90;;;8.00;;
12429;SDS011;6279;42.192;24.326;2023-03-01T04:43:47;7.83;;;7.03;;
12429;SDS011;6279;42.192;24.326;2023-03-01T04:46:14;9.90;;;8.47;;
12429;SDS011;6279;42.192;24.326;2023-03-01T04:48:42;8.50;;;6.87;;
12429;SDS011;6279;42.192;24.326;2023-03-01T04:51:09;7.97;;;7.17;;
12429;SDS011;6279;42.192;24.326;2023-03-01T04:53:38;8.73;;;7.63;;
12429;SDS011;6279;42.192;24.326;2023-03-01T04:56:04;10.10;;;9.10;;
12429;SDS011;6279;42.192;24.326;2023-03-01T04:58:30;11.53;;;10.03;;
12429;SDS011;6279;42.192;24.326;2023-03-01T05:00:55;10.77;;;9.37;;
12429;SDS011;6279;42.192;24.326;2023-03-01T05:03:21;12.23;;;10.40;;
12429;SDS011;6279;42.192;24.326;2023-03-01T05:05:47;13.53;;;10.57;;
12429;SDS011;6279;42.192;24.326;2023-03-01T05:08:13;13.07;;;10.90;;
12429;SDS011;6279;42.192;24.326;2023-03-01T05:10:43;13.93;;;11.83;;
12429;SDS011;6279;42.192;24.326;2023-03-01T05:13:11;13.37;;;10.93;;
12429;SDS011;6279;42.192;24.326;2023-03-01T05:15:38;14.23;;;11.17;;
12429;SDS011;6279;42.192;24.326;2023-03-01T05:18:04;14.53;;;10.67;;
12429;SDS011;6279;42.192;24.326;2023-03-01T05:20:36;17.57;;;12.73;;
12429;SDS011;6279;42.192;24.326;2023-03-01T05:23:02;14.33;;;12.47;;
12429;SDS011;6279;42.192;24.326;2023-03-01T05:25:30;12.73;;;10.87;;
12429;SDS011;6279;42.192;24.326;2023-03-01T05:27:58;13.27;;;11.87;;
12429;SDS011;6279;42.192;24.326;2023-03-01T05:30:28;11.90;;;10.30;;
12429;SDS011;6279;42.192;24.326;2023-03-01T05:32:53;11.90;;;10.67;;
12429;SDS011;6279;42.192;24.326;2023-03-01T05:35:20;11.73;;;9.67;;
12429;SDS011;6279;42.192;24.326;2023-03-01T05:37:47;11.97;;;10.70;;
12429;SDS011;6279;42.192;24.326;2023-03-01T05:40:19;13.27;;;10.90;;
12429;SDS011;6279;42.192;24.326;2023-03-01T05:42:56;11.57;;;10.10;;
12429;SDS011;6279;42.192;24.326;2023-03-01T05:45:22;11.80;;;9.83;;
12429;SDS011;6279;42.192;24.326;2023-03-01T05:47:49;15.80;;;9.70;;
12429;SDS011;6279;42.192;24.326;2023-03-01T05:50:20;8.43;;;7.53;;
12429;SDS011;6279;42.192;24.326;2023-03-01T05:53:10;9.20;;;7.17;;
12429;SDS011;6279;42.192;24.326;2023-03-01T05:55:37;7.90;;;7.10;;
12429;SDS011;6279;42.192;24.326;2023-03-01T05:58:04;8.60;;;7.70;;
12429;SDS011;6279;42.192;24.326;2023-03-01T06:00:32;8.57;;;7.47;;
12429;SDS011;6279;42.192;24.326;2023-03-01T06:02:58;10.20;;;8.33;;
12429;SDS011;6279;42.192;24.326;2023-03-01T06:05:25;9.87;;;7.73;;
12429;SDS011;6279;42.192;24.326;2023-03-01T06:07:50;10.13;;;8.90;;
12429;SDS011;6279;42.192;24.326;2023-03-01T06:10:16;11.43;;;9.77;;
12429;SDS011;6279;42.192;24.326;2023-03-01T06:12:43;11.70;;;10.20;;
12429;SDS011;6279;42.192;24.326;2023-03-01T06:15:09;11.30;;;9.47;;
12429;SDS011;6279;42.192;24.326;2023-03-01T06:17:37;10.33;;;8.40;;
12429;SDS011;6279;42.192;24.326;2023-03-01T06:20:05;8.00;;;6.53;;
12429;SDS011;6279;42.192;24.326;2023-03-01T06:22:35;9.47;;;7.47;;
12429;SDS011;6279;42.192;24.326;2023-03-01T06:25:01;9.13;;;7.50;;
12429;SDS011;6279;42.192;24.326;2023-03-01T06:27:26;10.27;;;8.43;;
12429;SDS011;6279;42.192;24.326;2023-03-01T06:29:52;17.93;;;9.73;;
12429;SDS011;6279;42.192;24.326;2023-03-01T06:32:17;9.60;;;8.00;;
12429;SDS011;6279;42.192;24.326;2023-03-01T06:34:43;12.63;;;9.93;;
12429;SDS011;6279;42.192;24.326;2023-03-01T06:37:09;13.90;;;9.67;;
12429;SDS011;6279;42.192;24.326;2023-03-01T06:39:34;11.00;;;9.20;;
12429;SDS011;6279;42.192;24.326;2023-03-01T06:42:00;13.80;;;9.57;;
12429;SDS011;6279;42.192;24.326;2023-03-01T06:44:25;12.73;;;9.60;;
12429;SDS011;6279;42.192;24.326;2023-03-01T06:46:51;8.67;;;7.17;;
12429;SDS011;6279;42.192;24.326;2023-03-01T06:49:17;13.93;;;9.37;;
12429;SDS011;6279;42.192;24.326;2023-03-01T06:51:43;10.57;;;8.03;;
12429;SDS011;6279;42.192;24.326;2023-03-01T06:54:09;9.87;;;8.83;;
12429;SDS011;6279;42.192;24.326;2023-03-01T06:56:35;11.17;;;9.23;;
12429;SDS011;6279;42.192;24.326;2023-03-01T06:59:01;10.37;;;8.77;;
12429;SDS011;6279;42.192;24.326;2023-03-01T07:01:27;9.80;;;8.40;;
12429;SDS011;6279;42.192;24.326;2023-03-01T07:03:53;9.60;;;8.33;;
12429;SDS011;6279;42.192;24.326;2023-03-01T07:06:19;13.03;;;11.37;;
12429;SDS011;6279;42.192;24.326;2023-03-01T07:08:45;11.70;;;9.90;;
12429;SDS011;6279;42.192;24.326;2023-03-01T07:11:11;12.20;;;10.60;;
12429;SDS011;6279;42.192;24.326;2023-03-01T07:13:36;12.43;;;10.43;;
12429;SDS011;6279;42.192;24.326;2023-03-01T07:16:02;11.03;;;9.83;;
12429;SDS011;6279;42.192;24.326;2023-03-01T07:18:27;9.13;;;7.97;;
12429;SDS011;6279;42.192;24.326;2023-03-01T07:20:53;11.43;;;8.57;;
12429;SDS011;6279;42.192;24.326;2023-03-01T07:23:18;11.80;;;7.97;;
12429;SDS011;6279;42.192;24.326;2023-03-01T07:25:43;13.07;;;9.87;;
12429;SDS011;6279;42.192;24.326;2023-03-01T07:28:09;10.63;;;8.10;;
12429;SDS011;6279;42.192;24.326;2023-03-01T07:30:34;11.57;;;8.20;;
12429;SDS011;6279;42.192;24.326;2023-03-01T07:33:00;11.00;;;8.63;;
12429;SDS011;6279;42.192;24.326;2023-03-01T07:35:26;11.93;;;9.07;;
12429;SDS011;6279;42.192;24.326;2023-03-01T07:37:52;9.90;;;8.07;;
12429;SDS011;6279;42.192;24.326;2023-03-01T07:40:18;11.57;;;9.43;;
12429;SDS011;6279;42.192;24.326;2023-03-01T07:42:43;11.73;;;9.20;;
12429;SDS011;6279;42.192;24.326;2023-03-01T07:45:09;10.40;;;8.60;;
12429;SDS011;6279;42.192;24.326;2023-03-01T07:47:35;13.30;;;9.60;;
12429;SDS011;6279;42.192;24.326;2023-03-01T07:50:01;13.47;;;9.30;;
12429;SDS011;6279;42.192;24.326;2023-03-01T07:52:27;12.80;;;9.13;;
12429;SDS011;6279;42.192;24.326;2023-03-01T07:54:53;14.07;;;10.40;;
12429;SDS011;6279;42.192;24.326;2023-03-01T07:57:18;13.10;;;10.40;;
12429;SDS011;6279;42.192;24.326;2023-03-01T07:59:44;12.33;;;10.40;;
12429;SDS011;6279;42.192;24.326;2023-03-01T08:02:10;12.60;;;9.63;;
12429;SDS011;6279;42.192;24.326;2023-03-01T08:04:36;13.67;;;9.53;;
12429;SDS011;6279;42.192;24.326;2023-03-01T08:07:03;12.77;;;8.73;;
12429;SDS011;6279;42.192;24.326;2023-03-01T08:09:29;13.43;;;8.70;;
12429;SDS011;6279;42.192;24.326;2023-03-01T08:11:56;9.73;;;8.00;;
12429;SDS011;6279;42.192;24.326;2023-03-01T08:14:22;11.07;;;7.40;;
12429;SDS011;6279;42.192;24.326;2023-03-01T08:16:48;7.47;;;6.70;;
12429;SDS011;6279;42.192;24.326;2023-03-01T08:19:14;7.67;;;6.43;;
12429;SDS011;6279;42.192;24.326;2023-03-01T08:21:40;11.47;;;8.63;;
12429;SDS011;6279;42.192;24.326;2023-03-01T08:24:05;10.50;;;8.70;;
12429;SDS011;6279;42.192;24.326;2023-03-01T08:26:32;13.00;;;10.10;;
12429;SDS011;6279;42.192;24.326;2023-03-01T08:28:59;13.07;;;11.60;;
12429;SDS011;6279;42.192;24.326;2023-03-01T08:31:35;11.13;;;9.77;;
12429;SDS011;6279;42.192;24.326;2023-03-01T08:34:08;9.73;;;8.10;;
12429;SDS011;6279;42.192;24.326;2023-03-01T08:36:36;15.80;;;12.27;;
12429;SDS011;6279;42.192;24.326;2023-03-01T08:39:04;14.93;;;12.70;;
12429;SDS011;6279;42.192;24.326;2023-03-01T08:41:31;11.80;;;7.83;;
12429;SDS011;6279;42.192;24.326;2023-03-01T08:43:56;11.40;;;9.10;;
12429;SDS011;6279;42.192;24.326;2023-03-01T08:46:32;9.77;;;8.77;;
12429;SDS011;6279;42.192;24.326;2023-03-01T08:48:59;8.40;;;7.53;;
12429;SDS011;6279;42.192;24.326;2023-03-01T08:51:25;7.43;;;6.63;;
12429;SDS011;6279;42.192;24.326;2023-03-01T08:53:51;9.77;;;7.47;;
12429;SDS011;6279;42.192;24.326;2023-03-01T08:56:17;12.53;;;8.70;;
12429;SDS011;6279;42.192;24.326;2023-03-01T08:58:44;10.90;;;8.00;;
12429;SDS011;6279;42.192;24.326;2023-03-01T09:01:11;8.10;;;7.23;;
12429;SDS011;6279;42.192;24.326;2023-03-01T09:03:38;15.97;;;8.27;;
12429;SDS011;6279;42.192;24.326;2023-03-01T09:06:04;13.00;;;8.13;;
12429;SDS011;6279;42.192;24.326;2023-03-01T09:08:30;16.67;;;7.77;;
12429;SDS011;6279;42.192;24.326;2023-03-01T09:11:00;9.37;;;6.80;;
12429;SDS011;6279;42.192;24.326;2023-03-01T09:13:27;11.63;;;6.30;;
12429;SDS011;6279;42.192;24.326;2023-03-01T09:15:55;8.33;;;7.43;;
12429;SDS011;6279;42.192;24.326;2023-03-01T09:18:21;11.93;;;10.47;;
12429;SDS011;6279;42.192;24.326;2023-03-01T09:20:46;8.73;;;7.60;;
12429;SDS011;6279;42.192;24.326;2023-03-01T09:23:12;10.63;;;7.67;;
12429;SDS011;6279;42.192;24.326;2023-03-01T09:25:37;9.17;;;8.10;;
12429;SDS011;6279;42.192;24.326;2023-03-01T09:28:03;12.80;;;9.43;;
12429;SDS011;6279;42.192;24.326;2023-03-01T09:30:28;12.77;;;7.30;;
12429;SDS011;6279;42.192;24.326;2023-03-01T09:32:55;8.07;;;5.33;;
12429;SDS011;6279;42.192;24.326;2023-03-01T09:35:21;6.43;;;5.37;;
12429;SDS011;6279;42.192;24.326;2023-03-01T09:37:47;7.80;;;6.03;;
12429;SDS011;6279;42.192;24.326;2023-03-01T09:40:16;10.37;;;6.97;;
12429;SDS011;6279;42.192;24.326;2023-03-01T09:42:55;12.00;;;8.30;;
12429;SDS011;6279;42.192;24.326;2023-03-01T09:45:35;9.73;;;7.27;;
12429;SDS011;6279;42.192;24.326;2023-03-01T09:48:04;10.17;;;7.50;;
12429;SDS011;6279;42.192;24.326;2023-03-01T09:50:35;9.90;;;7.70;;
12429;SDS011;6279;42.192;24.326;2023-03-01T09:53:10;8.70;;;6.40;;
12429;SDS011;6279;42.192;24.326;2023-03-01T09:55:39;7.27;;;6.20;;
12429;SDS011;6279;42.192;24.326;2023-03-01T09:58:29;8.40;;;7.10;;
12429;SDS011;6279;42.192;24.326;2023-03-01T10:00:57;9.33;;;8.30;;
12429;SDS011;6279;42.192;24.326;2023-03-01T10:08:49;9.63;;;5.97;;
12429;SDS011;6279;42.192;24.326;2023-03-01T10:11:41;9.17;;;8.13;;
12429;SDS011;6279;42.192;24.326;2023-03-01T10:14:22;9.53;;;7.10;;
12429;SDS011;6279;42.192;24.326;2023-03-01T10:19:16;8.10;;;6.60;;
12429;SDS011;6279;42.192;24.326;2023-03-01T10:21:48;8.50;;;7.60;;
12429;SDS011;6279;42.192;24.326;2023-03-01T10:24:16;8.80;;;7.47;;
12429;SDS011;6279;42.192;24.326;2023-03-01T10:26:49;11.80;;;8.10;;
12429;SDS011;6279;42.192;24.326;2023-03-01T10:29:21;12.80;;;8.10;;
12429;SDS011;6279;42.192;24.326;2023-03-01T10:31:55;8.60;;;7.37;;
12429;SDS011;6279;42.192;24.326;2023-03-01T10:34:28;8.33;;;6.50;;
12429;SDS011;6279;42.192;24.326;2023-03-01T10:36:57;7.47;;;6.33;;
12429;SDS011;6279;42.192;24.326;2023-03-01T10:39:26;6.37;;;5.77;;
12429;SDS011;6279;42.192;24.326;2023-03-01T10:41:56;6.87;;;5.70;;
12429;SDS011;6279;42.192;24.326;2023-03-01T10:44:45;15.97;;;8.40;;
12429;SDS011;6279;42.192;24.326;2023-03-01T10:47:14;7.50;;;6.70;;
12429;SDS011;6279;42.192;24.326;2023-03-01T10:49:46;8.63;;;7.20;;
12429;SDS011;6279;42.192;24.326;2023-03-01T10:52:18;9.93;;;7.87;;
12429;SDS011;6279;42.192;24.326;2023-03-01T10:55:22;8.67;;;7.70;;
12429;SDS011;6279;42.192;24.326;2023-03-01T10:57:50;10.00;;;8.03;;
12429;SDS011;6279;42.192;24.326;2023-03-01T11:00:33;10.60;;;8.93;;
12429;SDS011;6279;42.192;24.326;2023-03-01T11:03:12;9.80;;;8.10;;
12429;SDS011;6279;42.192;24.326;2023-03-01T11:05:51;10.80;;;8.80;;
12429;SDS011;6279;42.192;24.326;2023-03-01T11:16:59;9.70;;;7.03;;
12429;SDS011;6279;42.192;24.326;2023-03-01T11:19:37;8.10;;;6.60;;
12429;SDS011;6279;42.192;24.326;2023-03-01T11:22:04;6.43;;;5.27;;
12429;SDS011;6279;42.192;24.326;2023-03-01T11:24:34;10.13;;;6.60;;
12429;SDS011;6279;42.192;24.326;2023-03-01T11:27:22;9.67;;;7.23;;
12429;SDS011;6279;42.192;24.326;2023-03-01T11:29:59;6.67;;;5.73;;
12429;SDS011;6279;42.192;24.326;2023-03-01T11:32:41;7.50;;;6.77;;
12429;SDS011;6279;42.192;24.326;2023-03-01T11:35:15;7.73;;;6.90;;
12429;SDS011;6279;42.192;24.326;2023-03-01T12:00:07;8.90;;;6.90;;
12429;SDS011;6279;42.192;24.326;2023-03-01T12:13:13;7.07;;;5.70;;
12429;SDS011;6279;42.192;24.326;2023-03-01T12:21:42;8.97;;;7.03;;
12429;SDS011;6279;42.192;24.326;2023-03-01T12:27:15;10.30;;;6.83;;
12429;SDS011;6279;42.192;24.326;2023-03-01T12:32:57;7.23;;;5.93;;
12429;SDS011;6279;42.192;24.326;2023-03-01T12:35:46;7.93;;;6.60;;
12429;SDS011;6279;42.192;24.326;2023-03-01T12:49:14;6.60;;;5.73;;
12429;SDS011;6279;42.192;24.326;2023-03-01T12:51:49;6.83;;;5.03;;
12429;SDS011;6279;42.192;24.326;2023-03-01T12:54:36;5.47;;;4.50;;
12429;SDS011;6279;42.192;24.326;2023-03-01T13:02:36;7.53;;;6.00;;
12429;SDS011;6279;42.192;24.326;2023-03-01T13:07:44;5.23;;;4.30;;
12429;SDS011;6279;42.192;24.326;2023-03-01T13:18:00;7.77;;;6.97;;
12429;SDS011;6279;42.192;24.326;2023-03-01T13:20:34;8.47;;;7.13;;
12429;SDS011;6279;42.192;24.326;2023-03-01T13:33:51;12.87;;;9.07;;
12429;SDS011;6279;42.192;24.326;2023-03-01T13:44:26;8.50;;;6.87;;
12429;SDS011;6279;42.192;24.326;2023-03-01T13:58:16;12.10;;;7.03;;
12429;SDS011;6279;42.192;24.326;2023-03-01T14:00:46;6.93;;;5.47;;
12429;SDS011;6279;42.192;24.326;2023-03-01T14:03:18;9.20;;;6.67;;
12429;SDS011;6279;42.192;24.326;2023-03-01T14:08:31;9.63;;;6.37;;
12429;SDS011;6279;42.192;24.326;2023-03-01T14:14:18;10.90;;;7.37;;
12429;SDS011;6279;42.192;24.326;2023-03-01T14:19:31;8.57;;;7.67;;
12429;SDS011;6279;42.192;24.326;2023-03-01T14:22:12;7.00;;;6.10;;
12429;SDS011;6279;42.192;24.326;2023-03-01T14:24:52;7.10;;;6.40;;
12429;SDS011;6279;42.192;24.326;2023-03-01T14:27:21;7.37;;;5.80;;
12429;SDS011;6279;42.192;24.326;2023-03-01T14:29:55;6.30;;;5.63;;
12429;SDS011;6279;42.192;24.326;2023-03-01T14:32:29;11.17;;;6.30;;
12429;SDS011;6279;42.192;24.326;2023-03-01T14:34:57;6.73;;;5.87;;
12429;SDS011;6279;42.192;24.326;2023-03-01T14:37:30;9.70;;;6.47;;
12429;SDS011;6279;42.192;24.326;2023-03-01T14:40:00;6.77;;;5.63;;
12429;SDS011;6279;42.192;24.326;2023-03-01T14:42:29;7.90;;;5.70;;
12429;SDS011;6279;42.192;24.326;2023-03-01T14:44:58;6.40;;;5.53;;
12429;SDS011;6279;42.192;24.326;2023-03-01T14:47:28;8.90;;;7.13;;
12429;SDS011;6279;42.192;24.326;2023-03-01T14:50:05;9.83;;;7.40;;
12429;SDS011;6279;42.192;24.326;2023-03-01T14:52:42;8.47;;;6.87;;
12429;SDS011;6279;42.192;24.326;2023-03-01T14:55:15;8.90;;;7.43;;
12429;SDS011;6279;42.192;24.326;2023-03-01T14:57:43;10.57;;;8.17;;
12429;SDS011;6279;42.192;24.326;2023-03-01T15:00:16;13.80;;;9.60;;
12429;SDS011;6279;42.192;24.326;2023-03-01T15:02:45;14.23;;;7.90;;
12429;SDS011;6279;42.192;24.326;2023-03-01T15:05:13;9.93;;;7.40;;
12429;SDS011;6279;42.192;24.326;2023-03-01T15:07:41;12.30;;;8.50;;
12429;SDS011;6279;42.192;24.326;2023-03-01T15:10:21;9.47;;;8.00;;
12429;SDS011;6279;42.192;24.326;2023-03-01T15:12:48;9.73;;;7.10;;
12429;SDS011;6279;42.192;24.326;2023-03-01T15:17:58;9.87;;;7.60;;
12429;SDS011;6279;42.192;24.326;2023-03-01T15:20:26;12.97;;;9.53;;
12429;SDS011;6279;42.192;24.326;2023-03-01T15:22:55;11.07;;;8.47;;
12429;SDS011;6279;42.192;24.326;2023-03-01T15:25:23;10.47;;;8.00;;
12429;SDS011;6279;42.192;24.326;2023-03-01T15:27:51;12.47;;;10.60;;
12429;SDS011;6279;42.192;24.326;2023-03-01T15:30:21;13.40;;;10.70;;
12429;SDS011;6279;42.192;24.326;2023-03-01T15:33:15;12.13;;;9.33;;
12429;SDS011;6279;42.192;24.326;2023-03-01T15:35:45;17.37;;;11.93;;
12429;SDS011;6279;42.192;24.326;2023-03-01T15:41:03;15.30;;;12.57;;
12429;SDS011;6279;42.192;24.326;2023-03-01T15:43:46;21.43;;;19.17;;
12429;SDS011;6279;42.192;24.326;2023-03-01T15:46:33;20.40;;;14.70;;
12429;SDS011;6279;42.192;24.326;2023-03-01T15:49:00;19.03;;;14.70;;
12429;SDS011;6279;42.192;24.326;2023-03-01T15:51:34;15.70;;;10.67;;
12429;SDS011;6279;42.192;24.326;2023-03-01T15:54:21;14.53;;;10.10;;
12429;SDS011;6279;42.192;24.326;2023-03-01T15:56:50;15.93;;;10.07;;
12429;SDS011;6279;42.192;24.326;2023-03-01T15:59:15;11.20;;;8.20;;
12429;SDS011;6279;42.192;24.326;2023-03-01T16:01:41;17.13;;;9.27;;
12429;SDS011;6279;42.192;24.326;2023-03-01T16:04:14;19.80;;;11.43;;
12429;SDS011;6279;42.192;24.326;2023-03-01T16:06:52;12.13;;;10.27;;
12429;SDS011;6279;42.192;24.326;2023-03-01T16:09:22;16.33;;;12.03;;
12429;SDS011;6279;42.192;24.326;2023-03-01T16:11:48;17.00;;;13.03;;
12429;SDS011;6279;42.192;24.326;2023-03-01T16:14:14;16.33;;;12.10;;
12429;SDS011;6279;42.192;24.326;2023-03-01T16:16:41;18.47;;;14.33;;
12429;SDS011;6279;42.192;24.326;2023-03-01T16:19:07;15.47;;;13.17;;
12429;SDS011;6279;42.192;24.326;2023-03-01T16:21:33;16.50;;;13.43;;
12429;SDS011;6279;42.192;24.326;2023-03-01T16:23:58;16.57;;;13.00;;
12429;SDS011;6279;42.192;24.326;2023-03-01T16:26:23;12.73;;;10.90;;
12429;SDS011;6279;42.192;24.326;2023-03-01T16:28:54;17.07;;;12.63;;
12429;SDS011;6279;42.192;24.326;2023-03-01T16:31:21;19.87;;;14.93;;
12429;SDS011;6279;42.192;24.326;2023-03-01T16:33:53;16.63;;;13.63;;
12429;SDS011;6279;42.192;24.326;2023-03-01T16:36:19;13.33;;;10.17;;
12429;SDS011;6279;42.192;24.326;2023-03-01T16:38:48;18.20;;;12.03;;
12429;SDS011;6279;42.192;24.326;2023-03-01T16:41:15;18.93;;;13.23;;
12429;SDS011;6279;42.192;24.326;2023-03-01T16:43:41;20.47;;;14.40;;
12429;SDS011;6279;42.192;24.326;2023-03-01T16:46:23;27.57;;;21.73;;
12429;SDS011;6279;42.192;24.326;2023-03-01T16:48:51;20.60;;;17.00;;
12429;SDS011;6279;42.192;24.326;2023-03-01T16:51:17;25.67;;;17.13;;
12429;SDS011;6279;42.192;24.326;2023-03-01T16:53:43;28.20;;;20.60;;
12429;SDS011;6279;42.192;24.326;2023-03-01T16:56:09;21.50;;;16.13;;
12429;SDS011;6279;42.192;24.326;2023-03-01T16:58:36;13.80;;;11.30;;
12429;SDS011;6279;42.192;24.326;2023-03-01T17:01:04;19.80;;;13.60;;
12429;SDS011;6279;42.192;24.326;2023-03-01T17:03:31;18.93;;;13.90;;
12429;SDS011;6279;42.192;24.326;2023-03-01T17:05:56;19.53;;;15.97;;
12429;SDS011;6279;42.192;24.326;2023-03-01T17:08:25;18.90;;;15.10;;
12429;SDS011;6279;42.192;24.326;2023-03-01T17:10:50;19.20;;;15.00;;
12429;SDS011;6279;42.192;24.326;2023-03-01T17:13:16;19.63;;;14.00;;
12429;SDS011;6279;42.192;24.326;2023-03-01T17:15:41;18.57;;;14.90;;